createdAt,value
2023-03-17T00:00:20.029Z,26.92
2023-03-17T00:02:48.712Z,26.81
2023-03-17T00:05:19.375Z,26.81
2023-03-17T00:07:47.637Z,26.06
2023-03-17T00:10:19.078Z,26.11
2023-03-17T00:12:46.818Z,26.39
2023-03-17T00:15:15.236Z,26.29
2023-03-17T00:17:42.662Z,26.25
2023-03-17T00:20:13.367Z,25.83
2023-03-17T00:22:41.210Z,25.69
2023-03-17T00:25:28.433Z,26.56
2023-03-17T00:27:57.011Z,27.09
2023-03-17T00:30:28.385Z,26.93
2023-03-17T00:32:58.018Z,24.86
2023-03-17T00:35:27.236Z,26.78
2023-03-17T00:37:55.765Z,27.29
2023-03-17T00:40:25.941Z,26.89
2023-03-17T00:42:53.773Z,26.68
2023-03-17T00:45:22.309Z,26.19
2023-03-17T00:47:50.438Z,24.95
2023-03-17T00:50:19.236Z,25.89
2023-03-17T00:52:46.688Z,25.77
2023-03-17T00:55:14.717Z,25.52
2023-03-17T00:57:42.732Z,25.50
2023-03-17T01:00:21.679Z,25.92
2023-03-17T01:02:50.997Z,25.73
2023-03-17T01:05:18.370Z,24.15
2023-03-17T01:07:53.136Z,25.95
2023-03-17T01:10:22.798Z,25.77
2023-03-17T01:12:51.623Z,25.42
2023-03-17T01:15:20.031Z,25.60
2023-03-17T01:17:47.935Z,25.81
2023-03-17T01:20:19.898Z,26.04
2023-03-17T01:22:47.190Z,25.81
2023-03-17T01:25:16.679Z,23.50
2023-03-17T01:27:45.364Z,25.39
2023-03-17T01:30:29.892Z,24.69
2023-03-17T01:32:58.161Z,25.34
2023-03-17T01:35:26.944Z,25.65
2023-03-17T01:37:54.365Z,25.41
2023-03-17T01:40:23.498Z,25.49
2023-03-17T01:42:58.926Z,25.44
2023-03-17T01:45:44.972Z,25.09
2023-03-17T01:48:12.229Z,25.13
2023-03-17T01:50:39.899Z,25.05
2023-03-17T01:53:07.803Z,22.62
2023-03-17T01:55:35.693Z,22.97
2023-03-17T01:58:03.171Z,23.65
2023-03-17T02:00:31.305Z,23.65
2023-03-17T02:02:59.452Z,24.14
2023-03-17T02:05:29.212Z,24.33
2023-03-17T02:07:56.721Z,24.62
2023-03-17T02:10:30.446Z,24.86
2023-03-17T02:13:00.098Z,24.49
2023-03-17T02:15:37.009Z,24.94
2023-03-17T02:18:04.818Z,24.50
2023-03-17T02:20:32.871Z,24.83
2023-03-17T02:23:01.007Z,25.10
2023-03-17T02:25:31.033Z,25.22
2023-03-17T02:28:01.991Z,24.93
2023-03-17T02:30:29.661Z,24.75
2023-03-17T02:32:57.150Z,24.96
2023-03-17T02:35:27.397Z,25.20
2023-03-17T02:37:54.716Z,25.26
2023-03-17T02:40:22.277Z,25.67
2023-03-17T02:42:49.593Z,25.64
2023-03-17T02:45:16.856Z,25.46
2023-03-17T02:47:46.241Z,25.85
2023-03-17T02:50:19.439Z,25.62
2023-03-17T02:52:46.696Z,25.66
2023-03-17T02:55:14.694Z,25.55
2023-03-17T02:57:42.194Z,25.57
2023-03-17T03:00:14.504Z,25.68
2023-03-17T03:02:42.357Z,25.68
2023-03-17T03:05:09.940Z,24.88
2023-03-17T03:07:37.199Z,24.93
2023-03-17T03:10:04.728Z,25.42
2023-03-17T03:12:32.147Z,25.50
2023-03-17T03:14:59.794Z,25.54
2023-03-17T03:17:27.103Z,25.59
2023-03-17T03:19:54.356Z,25.43
2023-03-17T03:22:21.590Z,25.74
2023-03-17T03:24:48.844Z,25.76
2023-03-17T03:27:17.305Z,26.16
2023-03-17T03:29:44.662Z,26.10
2023-03-17T03:32:11.916Z,25.65
2023-03-17T03:34:39.263Z,25.27
2023-03-17T03:37:07.105Z,25.95
2023-03-17T03:39:34.409Z,25.45
2023-03-17T03:42:01.715Z,26.07
2023-03-17T03:44:28.967Z,25.19
2023-03-17T03:46:59.234Z,25.75
2023-03-17T03:49:26.735Z,25.50
2023-03-17T03:51:54.013Z,25.80
2023-03-17T03:54:21.274Z,25.29
2023-03-17T03:56:48.473Z,25.87
2023-03-17T03:59:16.631Z,25.88
2023-03-17T04:01:43.816Z,26.10
2023-03-17T04:04:11.238Z,26.32
2023-03-17T04:06:38.411Z,26.76
2023-03-17T04:09:05.680Z,26.74
2023-03-17T04:11:33.188Z,26.75
2023-03-17T04:14:00.459Z,27.09
2023-03-17T04:19:17.334Z,26.63
2023-03-17T04:27:42.849Z,26.69
2023-03-17T04:30:12.552Z,26.83
2023-03-17T04:32:40.219Z,27.07
2023-03-17T04:35:11.292Z,26.84
2023-03-17T04:37:39.138Z,27.07
2023-03-17T04:40:08.647Z,27.05
2023-03-17T04:42:36.436Z,26.73
2023-03-17T04:45:04.355Z,26.65
2023-03-17T04:47:31.608Z,26.71
2023-03-17T04:49:58.996Z,26.55
2023-03-17T04:52:26.527Z,26.27
2023-03-17T04:54:53.730Z,26.28
2023-03-17T04:57:21.017Z,26.38
2023-03-17T04:59:48.389Z,26.68
2023-03-17T05:02:15.677Z,25.97
2023-03-17T05:04:43.663Z,25.73
2023-03-17T05:07:11.288Z,25.56
2023-03-17T05:09:38.685Z,25.88
2023-03-17T05:12:06.516Z,25.25
2023-03-17T05:14:33.910Z,25.31
2023-03-17T05:17:01.277Z,25.37
2023-03-17T05:19:28.548Z,25.84
2023-03-17T05:21:56.442Z,24.98
2023-03-17T05:24:23.699Z,25.63
2023-03-17T05:26:50.983Z,24.79
2023-03-17T05:29:18.260Z,24.46
2023-03-17T05:31:45.480Z,25.17
2023-03-17T05:34:12.743Z,24.84
2023-03-17T05:36:39.987Z,25.17
2023-03-17T05:39:07.768Z,24.36
2023-03-17T05:41:35.205Z,25.52
2023-03-17T05:44:02.458Z,23.70
2023-03-17T05:46:29.765Z,25.18
2023-03-17T05:48:57.056Z,23.24
2023-03-17T05:51:24.347Z,25.44
2023-03-17T05:53:51.816Z,23.43
2023-03-17T05:56:19.079Z,24.37
2023-03-17T05:58:46.502Z,24.72
2023-03-17T06:01:14.500Z,25.08
2023-03-17T06:03:42.475Z,25.52
2023-03-17T06:06:09.754Z,24.43
2023-03-17T06:08:37.450Z,24.25
2023-03-17T06:11:05.734Z,25.12
2023-03-17T06:13:32.973Z,25.04
2023-03-17T06:16:00.349Z,25.13
2023-03-17T06:18:27.551Z,24.80
2023-03-17T06:20:55.634Z,25.03
2023-03-17T06:23:24.138Z,25.06
2023-03-17T06:25:51.411Z,24.83
2023-03-17T06:28:18.849Z,24.77
2023-03-17T06:30:46.329Z,25.07
2023-03-17T06:33:13.596Z,24.83
2023-03-17T06:35:41.316Z,24.69
2023-03-17T06:38:08.592Z,23.10
2023-03-17T06:40:35.915Z,24.39
2023-03-17T06:43:03.375Z,24.65
2023-03-17T06:45:30.786Z,24.66
2023-03-17T06:47:58.294Z,24.72
2023-03-17T06:50:26.074Z,24.56
2023-03-17T06:52:53.312Z,24.33
2023-03-17T06:55:21.601Z,24.58
2023-03-17T06:57:50.977Z,24.02
2023-03-17T07:00:19.438Z,21.97
2023-03-17T07:02:47.743Z,24.12
2023-03-17T07:05:15.022Z,23.42
2023-03-17T07:07:42.223Z,21.45
2023-03-17T07:10:10.679Z,23.59
2023-03-17T07:12:38.284Z,20.66
2023-03-17T07:15:05.752Z,23.24
2023-03-17T07:17:33.663Z,21.59
2023-03-17T07:20:01.165Z,18.18
2023-03-17T07:22:29.761Z,23.89
2023-03-17T07:24:57.041Z,23.67
2023-03-17T07:27:26.718Z,23.66
2023-03-17T07:29:54.036Z,23.54
2023-03-17T07:32:21.314Z,23.50
2023-03-17T07:34:48.762Z,22.84
2023-03-17T07:37:16.174Z,21.11
2023-03-17T07:39:43.929Z,23.06
2023-03-17T07:42:15.068Z,23.19
2023-03-17T07:44:42.406Z,23.11
2023-03-17T07:47:11.003Z,21.18
2023-03-17T07:49:41.999Z,23.12
2023-03-17T07:52:10.570Z,22.84
2023-03-17T07:54:38.084Z,22.82
2023-03-17T07:57:08.213Z,20.36
2023-03-17T07:59:35.555Z,22.79
2023-03-17T08:02:02.741Z,22.77
2023-03-17T08:04:30.292Z,22.46
2023-03-17T08:06:57.886Z,19.80
2023-03-17T08:09:25.866Z,21.81
2023-03-17T08:11:53.156Z,20.37
2023-03-17T08:14:20.737Z,22.42
2023-03-17T08:16:48.484Z,22.56
2023-03-17T08:19:16.598Z,18.58
2023-03-17T08:21:43.929Z,21.63
2023-03-17T08:24:11.405Z,20.87
2023-03-17T08:26:38.778Z,22.22
2023-03-17T08:29:06.224Z,21.91
2023-03-17T08:31:34.350Z,21.72
2023-03-17T08:34:03.031Z,20.14
2023-03-17T08:36:30.505Z,21.31
2023-03-17T08:38:58.173Z,21.34
2023-03-17T08:41:27.257Z,21.68
2023-03-17T08:43:55.205Z,19.85
2023-03-17T08:46:27.379Z,16.21
2023-03-17T08:48:56.604Z,20.90
2023-03-17T08:51:25.127Z,21.65
2023-03-17T08:53:52.627Z,21.95
2023-03-17T08:56:20.119Z,22.08
2023-03-17T08:58:48.091Z,22.09
2023-03-17T09:01:16.366Z,22.19
2023-03-17T09:03:44.207Z,22.07
2023-03-17T09:06:12.585Z,16.88
2023-03-17T09:08:41.497Z,21.26
2023-03-17T09:11:09.980Z,16.27
2023-03-17T09:13:39.365Z,21.44
2023-03-17T09:16:09.063Z,19.69
2023-03-17T09:18:36.486Z,20.72
2023-03-17T09:21:03.972Z,15.69
2023-03-17T09:23:31.384Z,20.15
2023-03-17T09:25:58.870Z,21.38
2023-03-17T09:28:26.112Z,21.16
2023-03-17T09:30:57.655Z,21.73
2023-03-17T09:33:25.361Z,21.58
2023-03-17T09:35:53.122Z,18.64
2023-03-17T09:38:20.747Z,20.08
2023-03-17T09:40:49.623Z,21.42
2023-03-17T09:43:23.139Z,19.64
2023-03-17T09:45:51.658Z,21.36
2023-03-17T09:48:22.077Z,21.25
2023-03-17T09:50:54.362Z,21.85
2023-03-17T09:53:42.063Z,21.16
2023-03-17T09:56:12.995Z,21.95
2023-03-17T09:58:42.678Z,21.88
2023-03-17T10:01:10.649Z,21.93
2023-03-17T10:03:37.888Z,21.41
2023-03-17T10:06:22.852Z,16.47
2023-03-17T10:09:01.077Z,20.94
2023-03-17T10:11:31.845Z,19.71
2023-03-17T10:14:09.756Z,19.83
2023-03-17T10:16:41.781Z,19.72
2023-03-17T10:19:19.611Z,21.37
2023-03-17T10:21:58.366Z,20.94
2023-03-17T10:24:26.900Z,19.53
2023-03-17T10:26:58.098Z,21.38
2023-03-17T10:29:25.674Z,21.57
2023-03-17T10:31:56.353Z,21.07
2023-03-17T10:34:28.113Z,17.91
2023-03-17T10:37:05.912Z,21.44
2023-03-17T10:39:42.301Z,21.73
2023-03-17T10:42:11.728Z,17.57
2023-03-17T10:44:40.742Z,16.83
2023-03-17T10:47:20.700Z,20.61
2023-03-17T10:49:48.335Z,19.96
2023-03-17T10:52:24.019Z,20.96
2023-03-17T10:54:54.808Z,20.90
2023-03-17T10:57:22.459Z,20.57
2023-03-17T10:59:55.701Z,14.65
2023-03-17T11:02:28.009Z,16.11
2023-03-17T11:05:04.680Z,17.33
2023-03-17T11:07:39.821Z,19.78
2023-03-17T11:10:18.610Z,19.65
2023-03-17T11:12:48.890Z,20.18
2023-03-17T11:15:18.123Z,17.13
2023-03-17T11:17:45.783Z,19.86
2023-03-17T11:20:25.146Z,18.17
2023-03-17T11:23:02.565Z,20.75
2023-03-17T11:25:30.211Z,20.43
2023-03-17T11:28:08.431Z,20.24
2023-03-17T11:30:37.262Z,20.30
2023-03-17T11:33:04.470Z,20.00
2023-03-17T11:35:36.068Z,20.38
2023-03-17T11:38:18.393Z,19.87
2023-03-17T11:40:45.661Z,20.37
2023-03-17T11:43:26.037Z,20.62
2023-03-17T11:45:58.318Z,20.72
2023-03-17T11:48:25.784Z,20.71
2023-03-17T11:50:59.277Z,20.30
2023-03-17T11:53:26.614Z,20.10
2023-03-17T11:56:11.348Z,19.85
2023-03-17T11:58:41.622Z,20.33
2023-03-17T12:01:13.184Z,20.27
2023-03-17T12:03:43.920Z,19.62
2023-03-17T12:06:16.002Z,17.73
2023-03-17T12:08:47.069Z,19.92
2023-03-17T12:11:17.437Z,20.28
2023-03-17T12:13:46.918Z,20.45
2023-03-17T12:16:27.484Z,20.69
2023-03-17T12:19:01.228Z,20.50
2023-03-17T12:21:37.262Z,20.04
2023-03-17T12:24:11.701Z,20.30
2023-03-17T12:26:45.035Z,20.30
2023-03-17T12:29:15.691Z,20.55
2023-03-17T12:31:47.355Z,16.81
2023-03-17T12:34:22.832Z,20.07
2023-03-17T12:36:50.284Z,20.36
2023-03-17T12:39:24.796Z,20.60
2023-03-17T12:42:05.761Z,19.05
2023-03-17T12:44:52.071Z,20.43
2023-03-17T12:47:22.297Z,20.50
2023-03-17T12:50:05.260Z,20.23
2023-03-17T12:52:54.100Z,20.05
2023-03-17T12:55:24.863Z,20.30
2023-03-17T12:58:01.195Z,20.43
2023-03-17T13:00:33.576Z,20.45
2023-03-17T13:03:13.675Z,20.24
2023-03-17T13:05:45.323Z,20.38
2023-03-17T13:08:16.578Z,19.87
2023-03-17T13:10:45.107Z,20.54
2023-03-17T13:13:31.221Z,20.14
2023-03-17T13:15:59.697Z,19.85
2023-03-17T13:18:46.060Z,19.88
2023-03-17T13:21:15.610Z,18.98
2023-03-17T13:23:46.001Z,20.51
2023-03-17T13:26:14.837Z,19.83
2023-03-17T13:28:43.973Z,19.87
2023-03-17T13:31:16.701Z,20.21
2023-03-17T13:33:54.354Z,19.70
2023-03-17T13:36:29.021Z,18.74
2023-03-17T13:39:18.387Z,19.34
2023-03-17T13:41:59.243Z,19.90
2023-03-17T13:44:28.205Z,20.28
2023-03-17T13:46:55.629Z,17.23
2023-03-17T13:49:30.449Z,19.83
2023-03-17T13:52:08.523Z,18.62
2023-03-17T13:54:40.980Z,20.45
2023-03-17T13:57:28.897Z,18.17
2023-03-17T14:00:06.174Z,20.38
2023-03-17T14:02:36.760Z,20.27
2023-03-17T14:05:09.127Z,20.25
2023-03-17T14:07:51.343Z,14.90
2023-03-17T14:10:20.102Z,17.96
2023-03-17T14:12:47.293Z,18.44
2023-03-17T14:15:29.625Z,18.53
2023-03-17T14:18:02.020Z,18.97
2023-03-17T14:20:29.528Z,19.78
2023-03-17T14:22:59.429Z,19.96
2023-03-17T14:25:31.203Z,19.03
2023-03-17T14:27:58.761Z,19.88
2023-03-17T14:30:27.631Z,19.92
2023-03-17T14:33:04.200Z,19.41
2023-03-17T14:35:33.213Z,18.13
2023-03-17T14:38:01.127Z,19.94
2023-03-17T14:40:30.133Z,20.05
2023-03-17T14:42:57.778Z,18.51
2023-03-17T14:45:30.446Z,19.13
2023-03-17T14:47:58.285Z,16.67
2023-03-17T14:50:31.180Z,18.14
2023-03-17T14:52:59.846Z,19.36
2023-03-17T14:55:34.999Z,19.13
2023-03-17T14:58:07.334Z,19.86
2023-03-17T15:00:37.474Z,19.31
2023-03-17T15:03:16.285Z,19.46
2023-03-17T15:05:44.311Z,20.06
2023-03-17T15:08:38.391Z,19.88
2023-03-17T15:11:06.679Z,20.16
2023-03-17T15:13:35.338Z,17.47
2023-03-17T15:16:06.672Z,18.99
2023-03-17T15:18:34.036Z,18.74
2023-03-17T15:21:01.457Z,19.58
2023-03-17T15:23:29.441Z,19.04
2023-03-17T15:25:57.313Z,18.62
2023-03-17T15:28:26.551Z,19.55
2023-03-17T15:30:57.029Z,19.70
2023-03-17T15:33:31.279Z,19.54
2023-03-17T15:36:00.596Z,18.88
2023-03-17T15:38:28.106Z,19.43
2023-03-17T15:40:55.766Z,18.21
2023-03-17T15:43:23.096Z,18.48
2023-03-17T15:46:03.958Z,19.19
2023-03-17T15:48:33.004Z,18.78
2023-03-17T15:51:00.664Z,18.04
2023-03-17T15:53:28.272Z,19.17
2023-03-17T15:55:55.475Z,18.48
2023-03-17T15:58:22.735Z,19.22
2023-03-17T16:00:54.921Z,19.00
2023-03-17T16:03:22.176Z,18.89
2023-03-17T16:05:49.483Z,19.21
2023-03-17T16:08:18.384Z,19.23
2023-03-17T16:10:46.658Z,18.85
2023-03-17T16:13:13.932Z,19.06
2023-03-17T16:15:43.298Z,18.77
2023-03-17T16:18:18.553Z,18.55
2023-03-17T16:20:51.191Z,18.68
2023-03-17T16:23:23.231Z,18.21
2023-03-17T16:25:50.589Z,19.39
2023-03-17T16:28:19.711Z,19.19
2023-03-17T16:30:47.698Z,19.13
2023-03-17T16:33:22.748Z,18.65
2023-03-17T16:35:50.950Z,19.36
2023-03-17T16:38:21.179Z,18.96
2023-03-17T16:40:53.299Z,19.11
2023-03-17T16:43:25.489Z,18.32
2023-03-17T16:46:00.296Z,19.37
2023-03-17T16:48:27.684Z,19.27
2023-03-17T16:50:55.733Z,17.73
2023-03-17T16:53:23.910Z,18.57
2023-03-17T16:55:52.161Z,19.69
2023-03-17T16:58:20.983Z,19.33
2023-03-17T17:00:49.287Z,19.31
2023-03-17T17:03:16.937Z,19.27
2023-03-17T17:05:44.767Z,19.32
2023-03-17T17:08:11.998Z,18.97
2023-03-17T17:10:40.220Z,19.19
2023-03-17T17:13:08.895Z,18.96
2023-03-17T17:15:37.097Z,19.30
2023-03-17T17:18:07.368Z,19.01
2023-03-17T17:20:36.337Z,19.13
2023-03-17T17:23:03.890Z,19.15
2023-03-17T17:25:31.462Z,19.23
2023-03-17T17:27:59.324Z,18.99
2023-03-17T17:30:28.611Z,19.05
2023-03-17T17:32:57.360Z,19.14
2023-03-17T17:35:25.941Z,19.11
2023-03-17T17:37:53.553Z,19.17
2023-03-17T17:40:22.449Z,19.35
2023-03-17T17:42:49.773Z,19.27
2023-03-17T17:45:17.805Z,19.43
2023-03-17T17:47:45.310Z,19.69
2023-03-17T17:50:17.254Z,19.69
2023-03-17T17:52:46.552Z,19.27
2023-03-17T17:55:14.692Z,19.10
2023-03-17T17:57:42.338Z,19.58
2023-03-17T18:00:12.986Z,19.33
2023-03-17T18:02:40.390Z,19.31
2023-03-17T18:05:09.510Z,19.12
2023-03-17T18:07:36.827Z,19.23
2023-03-17T18:10:04.659Z,19.78
2023-03-17T18:12:32.298Z,20.36
2023-03-17T18:14:59.633Z,20.27
2023-03-17T18:17:27.604Z,19.99
2023-03-17T18:19:54.823Z,20.37
2023-03-17T18:22:22.165Z,20.01
2023-03-17T18:24:49.639Z,19.94
2023-03-17T18:27:17.549Z,20.11
2023-03-17T18:29:45.166Z,20.40
2023-03-17T18:32:13.324Z,20.48
2023-03-17T18:34:47.028Z,20.28
2023-03-17T18:37:15.738Z,20.30
2023-03-17T18:39:43.118Z,20.57
2023-03-17T18:42:10.822Z,20.78
2023-03-17T18:44:38.489Z,20.41
2023-03-17T18:47:05.922Z,20.59
2023-03-17T18:49:34.338Z,20.75
2023-03-17T18:52:01.676Z,21.12
2023-03-17T18:54:29.128Z,21.08
2023-03-17T18:56:57.443Z,21.01
2023-03-17T18:59:24.802Z,21.02
2023-03-17T19:01:52.276Z,21.28
2023-03-17T19:04:19.669Z,21.61
2023-03-17T19:06:46.873Z,21.56
2023-03-17T19:09:14.524Z,21.36
2023-03-17T19:11:42.293Z,21.46
2023-03-17T19:14:10.131Z,21.78
2023-03-17T19:16:37.539Z,21.82
2023-03-17T19:19:04.791Z,21.88
2023-03-17T19:21:32.729Z,22.05
2023-03-17T19:24:01.170Z,22.03
2023-03-17T19:26:30.647Z,22.42
2023-03-17T19:28:57.858Z,22.25
2023-03-17T19:31:25.179Z,21.94
2023-03-17T19:33:52.503Z,21.97
2023-03-17T19:36:20.156Z,21.97
2023-03-17T19:38:47.487Z,21.95
2023-03-17T19:41:15.886Z,21.75
2023-03-17T19:43:43.247Z,21.59
2023-03-17T19:46:11.731Z,21.60
2023-03-17T19:48:39.319Z,21.53
2023-03-17T19:51:07.278Z,22.00
2023-03-17T19:53:34.876Z,21.90
2023-03-17T19:56:02.126Z,21.73
2023-03-17T19:58:29.432Z,21.66
2023-03-17T20:00:56.773Z,21.66
2023-03-17T20:03:26.154Z,21.92
2023-03-17T20:05:53.849Z,22.12
2023-03-17T20:08:22.738Z,22.24
2023-03-17T20:10:54.208Z,22.43
2023-03-17T20:13:22.174Z,22.38
2023-03-17T20:15:50.572Z,22.70
2023-03-17T20:18:19.012Z,22.46
2023-03-17T20:20:49.816Z,22.44
2023-03-17T20:23:17.714Z,23.71
2023-03-17T20:25:45.188Z,23.29
2023-03-17T20:28:12.604Z,22.87
2023-03-17T20:30:40.367Z,23.78
2023-03-17T20:33:08.525Z,23.26
2023-03-17T20:35:36.567Z,23.30
2023-03-17T20:38:03.875Z,23.25
2023-03-17T20:40:31.727Z,24.51
2023-03-17T20:42:59.140Z,24.52
2023-03-17T20:45:26.518Z,23.63
2023-03-17T20:47:54.806Z,23.97
2023-03-17T20:50:23.004Z,24.32
2023-03-17T20:52:50.344Z,23.91
2023-03-17T20:55:17.959Z,25.00
2023-03-17T20:57:48.883Z,24.46
2023-03-17T21:00:20.450Z,24.41
2023-03-17T21:02:50.458Z,25.07
2023-03-17T21:05:20.282Z,25.27
2023-03-17T21:07:48.392Z,25.18
2023-03-17T21:10:16.018Z,26.45
2023-03-17T21:12:43.748Z,26.08
2023-03-17T21:15:11.209Z,26.45
2023-03-17T21:17:38.948Z,25.47
2023-03-17T21:20:07.076Z,25.07
2023-03-17T21:22:37.227Z,25.36
2023-03-17T21:25:05.501Z,24.90
2023-03-17T21:27:34.156Z,26.14
2023-03-17T21:30:01.548Z,26.26
2023-03-17T21:32:28.802Z,25.57
2023-03-17T21:34:56.224Z,25.53
2023-03-17T21:37:23.557Z,25.73
2023-03-17T21:39:50.834Z,26.44
2023-03-17T21:42:18.231Z,25.50
2023-03-17T21:44:46.146Z,27.23
2023-03-17T21:47:13.477Z,27.51
2023-03-17T21:49:41.718Z,26.77
2023-03-17T21:52:09.771Z,26.91
2023-03-17T21:54:37.045Z,26.74
2023-03-17T21:57:04.856Z,27.05
2023-03-17T21:59:34.617Z,27.18
2023-03-17T22:02:03.142Z,28.07
2023-03-17T22:04:30.288Z,27.39
2023-03-17T22:06:59.167Z,25.78
2023-03-17T22:09:26.477Z,25.94
2023-03-17T22:11:53.733Z,26.39
2023-03-17T22:14:21.056Z,26.68
2023-03-17T22:16:49.091Z,28.90
2023-03-17T22:19:18.183Z,27.25
2023-03-17T22:21:46.577Z,27.17
2023-03-17T22:24:13.859Z,28.54
2023-03-17T22:26:41.376Z,26.87
2023-03-17T22:29:08.686Z,28.97
2023-03-17T22:31:36.536Z,28.92
2023-03-17T22:34:04.514Z,29.12
2023-03-17T22:36:32.182Z,26.95
2023-03-17T22:39:00.134Z,27.05
2023-03-17T22:41:28.772Z,27.64
2023-03-17T22:43:56.353Z,28.45
2023-03-17T22:46:24.228Z,26.74
2023-03-17T22:48:52.144Z,26.15
2023-03-17T22:51:21.118Z,26.01
2023-03-17T22:53:48.709Z,26.45
2023-03-17T22:56:16.785Z,26.68
2023-03-17T22:58:45.028Z,28.66
2023-03-17T23:01:13.847Z,25.84
2023-03-17T23:03:41.399Z,27.88
2023-03-17T23:06:08.926Z,26.42
2023-03-17T23:08:38.669Z,27.44
2023-03-17T23:11:08.061Z,27.19
2023-03-17T23:13:35.919Z,29.06
2023-03-17T23:16:04.979Z,27.93
2023-03-17T23:18:32.601Z,29.59
2023-03-17T23:21:00.395Z,27.71
2023-03-17T23:23:27.691Z,27.47
2023-03-17T23:25:55.044Z,26.91
2023-03-17T23:28:22.404Z,29.05
2023-03-17T23:30:49.767Z,29.03
2023-03-17T23:33:21.451Z,29.50
2023-03-17T23:35:50.756Z,30.18
2023-03-17T23:38:19.750Z,27.20
2023-03-17T23:40:47.521Z,28.05
2023-03-17T23:43:15.107Z,27.69
2023-03-17T23:45:42.475Z,28.44
2023-03-17T23:48:10.785Z,26.70
2023-03-17T23:50:39.663Z,28.24
2023-03-17T23:53:06.915Z,26.83
2023-03-17T23:55:34.301Z,26.70
2023-03-17T23:58:04.221Z,26.31
